Time;durP1;ratioP1;P1;durP2;ratioP2;P2;SDS_P1;SDS_P2;PMS_P1;PMS_P2;Temp;Humidity;BMP_temperature;BMP_pressure;BME280_temperature;BME280_humidity;BME280_pressure;Samples;Min_cycle;Max_cycle;Signal;HPM_P1;HPM_P2
2023/01/20 00:01:45;;;;;;;5.70;5.20;;;;;;;0.07;100.00;97984.38;4120714;28;20314;-49
2023/01/20 00:03:47;;;;;;;5.43;4.93;;;;;;;0.15;100.00;97986.91;4133854;28;20202;-49
2023/01/20 00:05:52;;;;;;;5.47;4.97;;;;;;;0.13;100.00;97983.56;4134568;28;20215;-49
2023/01/20 00:07:53;;;;;;;5.33;4.83;;;;;;;0.28;100.00;97986.16;4133946;28;20208;-49
2023/01/20 00:09:55;;;;;;;5.50;4.97;;;;;;;0.32;100.00;97990.94;4142785;28;21398;-49
2023/01/20 00:11:57;;;;;;;5.97;5.47;;;;;;;0.24;100.00;97991.09;4137162;28;20229;-50
2023/01/20 00:14:00;;;;;;;7.53;6.47;;;;;;;-0.04;100.00;97992.97;4139775;28;20209;-48
2023/01/20 00:16:07;;;;;;;5.60;5.20;;;;;;;-0.09;100.00;97996.47;4137133;28;20233;-49
2023/01/20 00:18:09;;;;;;;5.67;5.17;;;;;;;-0.13;100.00;97999.53;4137312;28;20233;-49
2023/01/20 00:20:11;;;;;;;5.87;5.30;;;;;;;-0.12;100.00;98005.75;4123001;28;20265;-49
2023/01/20 00:22:13;;;;;;;5.97;5.37;;;;;;;-0.06;100.00;97999.59;4137481;28;20580;-49
2023/01/20 00:24:14;;;;;;;9.73;8.93;;;;;;;-0.13;100.00;97994.16;4136053;28;20696;-48
2023/01/20 00:26:21;;;;;;;11.07;9.90;;;;;;;-0.11;100.00;98010.91;4140617;28;20702;-49
2023/01/20 00:28:23;;;;;;;13.27;12.03;;;;;;;-0.08;100.00;98006.19;4134155;28;20280;-48
2023/01/20 00:30:25;;;;;;;13.60;11.98;;;;;;;-0.05;100.00;98012.81;4134629;28;20221;-49
2023/01/20 00:32:27;;;;;;;12.65;10.88;;;;;;;-0.01;100.00;98014.09;4136152;28;20707;-48
2023/01/20 00:34:28;;;;;;;12.83;11.53;;;;;;;-0.13;100.00;98012.97;4136230;28;20232;-49
2023/01/20 00:36:31;;;;;;;11.10;10.00;;;;;;;-0.17;100.00;98020.78;4135570;28;21236;-49
2023/01/20 00:38:33;;;;;;;12.73;9.00;;;;;;;-0.19;100.00;98025.53;4135105;28;20209;-48
2023/01/20 00:40:34;;;;;;;10.00;9.03;;;;;;;-0.22;100.00;98020.56;4136427;28;20288;-48
2023/01/20 00:42:36;;;;;;;10.73;9.33;;;;;;;-0.13;100.00;98018.34;4134987;28;20231;-49
2023/01/20 00:44:38;;;;;;;10.63;9.10;;;;;;;-0.14;100.00;98025.78;4136906;28;20209;-49
2023/01/20 00:46:39;;;;;;;10.03;8.23;;;;;;;-0.26;100.00;98020.13;4138135;28;20232;-50
2023/01/20 00:48:41;;;;;;;9.23;8.33;;;;;;;-0.28;100.00;98027.53;4137923;28;20575;-51
2023/01/20 00:50:43;;;;;;;9.43;8.53;;;;;;;-0.33;100.00;98029.16;4137991;28;20209;-51
2023/01/20 00:52:45;;;;;;;9.80;8.70;;;;;;;-0.32;100.00;98020.06;4135069;28;20260;-49
2023/01/20 00:54:46;;;;;;;9.80;8.83;;;;;;;-0.37;100.00;98022.47;4120104;28;20292;-49
2023/01/20 00:56:48;;;;;;;12.47;9.30;;;;;;;-0.35;100.00;98020.47;4140486;28;21094;-50
2023/01/20 00:58:50;;;;;;;9.47;8.57;;;;;;;-0.38;100.00;98031.56;4118854;28;20214;-49
2023/01/20 01:00:52;;;;;;;10.10;9.20;;;;;;;-0.42;100.00;98035.69;4135334;28;20715;-49
2023/01/20 01:02:54;;;;;;;8.60;7.37;;;;;;;-0.40;100.00;98034.44;4148111;28;20311;-49
2023/01/20 01:04:56;;;;;;;10.40;7.40;;;;;;;-0.43;100.00;98037.53;4134866;28;20210;-49
2023/01/20 01:06:57;;;;;;;9.13;8.30;;;;;;;-0.44;100.00;98037.72;4150335;28;20236;-48
2023/01/20 01:08:59;;;;;;;9.47;8.77;;;;;;;-0.47;100.00;98043.50;4134187;28;20328;-50
2023/01/20 01:11:01;;;;;;;7.33;6.63;;;;;;;-0.52;100.00;98041.38;4135314;28;20617;-49
2023/01/20 01:13:04;;;;;;;11.97;8.47;;;;;;;-0.42;100.00;98046.44;4133837;28;21028;-48
2023/01/20 01:15:06;;;;;;;7.37;6.67;;;;;;;-0.30;100.00;98044.88;4138382;28;20213;-48
2023/01/20 01:17:08;;;;;;;7.60;6.90;;;;;;;-0.26;100.00;98040.78;4135067;28;20253;-47
2023/01/20 01:19:10;;;;;;;7.13;6.47;;;;;;;-0.58;100.00;98046.69;4136127;28;20276;-48
2023/01/20 01:21:14;;;;;;;8.10;7.40;;;;;;;-0.52;100.00;98046.75;4136011;28;20243;-49
2023/01/20 01:23:16;;;;;;;7.60;7.00;;;;;;;-0.56;100.00;98055.41;4135505;28;20229;-48
2023/01/20 01:25:18;;;;;;;9.50;7.37;;;;;;;-0.53;100.00;98047.78;4138141;28;20213;-50
2023/01/20 01:27:20;;;;;;;8.80;8.03;;;;;;;-0.58;100.00;98057.41;4133685;28;20202;-48
2023/01/20 01:29:22;;;;;;;6.87;6.03;;;;;;;-0.54;100.00;98061.41;4118615;28;20989;-48
2023/01/20 01:31:23;;;;;;;8.50;7.20;;;;;;;-0.53;100.00;98061.22;4150294;28;20205;-48
2023/01/20 01:33:25;;;;;;;9.27;7.90;;;;;;;-0.62;100.00;98056.16;4133527;28;20610;-48
2023/01/20 01:35:27;;;;;;;7.43;6.73;;;;;;;-0.66;100.00;98065.63;4134960;28;20341;-48
2023/01/20 01:37:44;;;;;;;8.20;7.40;;;;;;;-0.70;100.00;98069.69;4103059;28;20257;-48
2023/01/20 01:39:45;;;;;;;9.83;7.17;;;;;;;-0.67;100.00;98061.25;4134407;28;20622;-49
2023/01/20 01:41:47;;;;;;;7.20;6.57;;;;;;;-0.66;100.00;98065.63;4137955;28;20236;-48
2023/01/20 01:44:09;;;;;;;7.10;6.40;;;;;;;-0.65;100.00;98067.28;4134626;28;21145;-49
2023/01/20 01:46:11;;;;;;;6.70;6.20;;;;;;;-0.67;100.00;98067.44;4136473;28;20244;-48
2023/01/20 01:48:13;;;;;;;8.17;7.33;;;;;;;-0.72;100.00;98072.59;4143302;28;20233;-49
2023/01/20 01:50:29;;;;;;;9.10;8.30;;;;;;;-0.63;100.00;98067.91;4137661;28;20268;-48
2023/01/20 01:52:32;;;;;;;7.37;6.67;;;;;;;-0.76;100.00;98068.59;4142464;28;20248;-49
2023/01/20 01:54:37;;;;;;;9.10;8.07;;;;;;;-0.68;100.00;98075.72;4137524;28;20217;-48
2023/01/20 01:56:41;;;;;;;9.03;8.13;;;;;;;-0.68;100.00;98083.78;4168298;28;20219;-49
2023/01/20 01:58:45;;;;;;;9.93;8.90;;;;;;;-0.73;100.00;98080.81;4135165;28;20648;-49
2023/01/20 02:00:47;;;;;;;8.27;7.50;;;;;;;-0.76;100.00;98086.56;4136063;28;20256;-48
2023/01/20 02:02:50;;;;;;;7.47;6.77;;;;;;;-0.76;100.00;98091.94;4134849;28;20241;-50
2023/01/20 02:04:51;;;;;;;7.47;6.80;;;;;;;-0.89;100.00;98091.81;4140427;28;20267;-49
2023/01/20 02:06:59;;;;;;;6.97;6.37;;;;;;;-0.99;100.00;98092.09;4151648;28;20209;-49
2023/01/20 02:09:03;;;;;;;11.10;6.10;;;;;;;-0.95;100.00;98103.31;4140094;28;20208;-49
2023/01/20 02:11:05;;;;;;;9.67;7.53;;;;;;;-0.96;100.00;98101.59;4138643;28;20304;-49
2023/01/20 02:13:07;;;;;;;7.77;6.53;;;;;;;-0.78;100.00;98097.50;4136999;28;20893;-48
2023/01/20 02:15:09;;;;;;;6.83;6.20;;;;;;;-0.74;100.00;98100.66;4138126;28;20217;-49
2023/01/20 02:17:36;;;;;;;8.63;7.93;;;;;;;-0.91;100.00;98092.00;4140212;28;20301;-48
2023/01/20 02:19:49;;;;;;;6.80;6.30;;;;;;;-0.86;100.00;98097.63;4135256;28;20699;-49
2023/01/20 02:22:13;;;;;;;7.30;5.93;;;;;;;-0.85;100.00;98101.13;4149111;28;20376;-49
2023/01/20 02:24:34;;;;;;;7.27;6.63;;;;;;;-0.96;100.00;98096.25;4138827;28;20248;-49
2023/01/20 02:26:38;;;;;;;5.77;5.37;;;;;;;-0.82;100.00;98109.63;4132892;28;20212;-48
2023/01/20 02:29:01;;;;;;;7.23;6.60;;;;;;;-0.90;100.00;98106.22;4145943;28;20200;-50
2023/01/20 02:31:02;;;;;;;6.60;6.00;;;;;;;-0.92;100.00;98105.59;4141957;28;20296;-49
2023/01/20 02:33:18;;;;;;;6.93;6.43;;;;;;;-0.79;100.00;98111.13;4139940;28;20286;-49
2023/01/20 02:35:25;;;;;;;8.70;7.90;;;;;;;-1.11;100.00;98114.22;4137184;28;20248;-48
2023/01/20 02:37:29;;;;;;;7.37;6.77;;;;;;;-1.12;100.00;98120.63;4139884;28;20243;-48
2023/01/20 02:39:40;;;;;;;9.37;8.43;;;;;;;-1.11;100.00;98119.59;4141984;28;20206;-49
2023/01/20 02:42:16;;;;;;;7.77;6.83;;;;;;;-1.07;100.00;98120.91;4149922;28;20298;-48
2023/01/20 02:44:26;;;;;;;8.77;7.77;;;;;;;-1.10;100.00;98127.47;4135274;28;20292;-49
2023/01/20 02:46:35;;;;;;;12.23;7.03;;;;;;;-1.11;100.00;98133.00;4152257;28;20240;-51
2023/01/20 02:48:57;;;;;;;7.80;7.00;;;;;;;-1.12;100.00;98139.41;4135633;28;20233;-49
2023/01/20 02:51:08;;;;;;;7.67;7.07;;;;;;;-1.17;100.00;98144.50;4137416;28;20276;-48
2023/01/20 02:53:12;;;;;;;11.33;7.63;;;;;;;-1.17;100.00;98141.81;4135294;28;20229;-49
2023/01/20 02:55:23;;;;;;;7.70;7.03;;;;;;;-1.20;100.00;98147.56;4145950;28;20292;-49
2023/01/20 02:57:28;;;;;;;6.70;6.10;;;;;;;-1.25;100.00;98139.22;4138154;28;20251;-48
2023/01/20 02:59:33;;;;;;;9.27;7.50;;;;;;;-1.26;100.00;98143.78;4119649;28;20206;-48
2023/01/20 03:01:41;;;;;;;8.03;7.27;;;;;;;-1.28;100.00;98140.44;4151114;28;20208;-50
2023/01/20 03:03:45;;;;;;;8.63;7.90;;;;;;;-1.26;100.00;98148.31;4135512;28;20206;-48
2023/01/20 03:05:52;;;;;;;8.50;7.60;;;;;;;-1.29;100.00;98148.69;4123510;28;20298;-48
2023/01/20 03:07:54;;;;;;;7.97;7.17;;;;;;;-1.28;100.00;98144.97;4139643;28;20201;-50
2023/01/20 03:09:59;;;;;;;7.10;6.40;;;;;;;-1.20;100.00;98144.88;4151678;28;20209;-49
2023/01/20 03:12:08;;;;;;;10.07;8.30;;;;;;;-1.25;100.00;98150.81;4136853;28;20359;-49
2023/01/20 03:14:12;;;;;;;8.03;7.40;;;;;;;-1.24;100.00;98151.63;4136430;28;20224;-49
2023/01/20 03:16:18;;;;;;;7.40;6.80;;;;;;;-1.17;100.00;98160.59;4137487;28;20212;-48
2023/01/20 03:18:20;;;;;;;6.53;6.03;;;;;;;-1.28;100.00;98161.06;4147664;28;20213;-50
2023/01/20 03:20:21;;;;;;;8.00;6.73;;;;;;;-1.35;100.00;98169.00;4130714;28;20292;-50
2023/01/20 03:22:23;;;;;;;9.33;6.77;;;;;;;-1.34;100.00;98168.00;4141012;28;20236;-49
2023/01/20 03:24:27;;;;;;;7.70;7.07;;;;;;;-1.21;100.00;98164.69;4136370;28;20285;-48
2023/01/20 03:26:29;;;;;;;7.33;6.63;;;;;;;-1.11;100.00;98173.28;4133736;28;20305;-48
2023/01/20 03:28:31;;;;;;;8.77;7.50;;;;;;;-1.17;100.00;98168.66;4137264;28;20244;-50
2023/01/20 03:30:33;;;;;;;6.67;5.83;;;;;;;-1.21;100.00;98168.19;4137244;28;20293;-49
2023/01/20 03:32:35;;;;;;;6.97;6.37;;;;;;;-1.14;100.00;98179.84;4135222;28;20229;-50
2023/01/20 03:34:39;;;;;;;9.10;8.40;;;;;;;-1.21;100.00;98178.91;4137461;28;20252;-49
2023/01/20 03:36:41;;;;;;;7.50;6.90;;;;;;;-1.19;100.00;98181.41;4152111;28;20786;-48
2023/01/20 03:38:44;;;;;;;8.93;6.90;;;;;;;-1.27;100.00;98181.53;4152318;28;20886;-49
2023/01/20 03:41:09;;;;;;;7.57;6.77;;;;;;;-1.24;100.00;98192.72;4134713;28;20691;-49
2023/01/20 03:43:18;;;;;;;8.90;8.13;;;;;;;-1.37;100.00;98179.09;4134831;28;20256;-49
2023/01/20 03:45:39;;;;;;;7.70;6.77;;;;;;;-1.54;100.00;98192.88;4137009;28;20319;-48
2023/01/20 03:47:57;;;;;;;9.33;8.33;;;;;;;-1.51;100.00;98193.34;4149263;28;20205;-49
2023/01/20 03:50:04;;;;;;;8.47;7.73;;;;;;;-1.76;100.00;98193.72;4152168;28;20216;-47
2023/01/20 03:52:14;;;;;;;7.23;6.63;;;;;;;-1.76;100.00;98191.03;4150844;28;20269;-48
2023/01/20 03:54:21;;;;;;;12.23;7.27;;;;;;;-1.57;100.00;98198.56;4150377;28;20231;-49
2023/01/20 03:56:40;;;;;;;5.93;5.37;;;;;;;-1.51;100.00;98192.50;4137338;28;24203;-49
2023/01/20 03:58:45;;;;;;;7.03;6.53;;;;;;;-1.52;100.00;98201.56;4138292;28;20236;-49
2023/01/20 04:00:48;;;;;;;7.73;7.03;;;;;;;-1.41;100.00;98209.16;4137443;28;20323;-49
2023/01/20 04:02:52;;;;;;;8.93;8.23;;;;;;;-1.56;100.00;98211.81;4134196;28;20261;-49
2023/01/20 04:04:54;;;;;;;8.00;7.40;;;;;;;-1.59;100.00;98205.97;4137738;28;20262;-49
2023/01/20 04:06:56;;;;;;;6.40;5.80;;;;;;;-1.57;100.00;98203.94;4134076;28;20660;-49
2023/01/20 04:09:01;;;;;;;6.93;6.33;;;;;;;-1.42;100.00;98208.31;4121381;28;20242;-49
2023/01/20 04:11:05;;;;;;;7.00;6.50;;;;;;;-1.48;100.00;98210.91;4134303;28;20214;-49
2023/01/20 04:13:07;;;;;;;7.73;7.13;;;;;;;-1.57;100.00;98212.00;4134963;28;20249;-49
2023/01/20 04:15:10;;;;;;;7.10;6.40;;;;;;;-1.61;100.00;98219.56;4135146;28;20221;-50
2023/01/20 04:17:12;;;;;;;7.07;6.43;;;;;;;-1.51;100.00;98216.63;4128213;28;20225;-49
2023/01/20 04:19:13;;;;;;;7.03;6.50;;;;;;;-1.64;100.00;98219.09;4137176;28;20329;-49
2023/01/20 04:21:45;;;;;;;7.97;7.37;;;;;;;-1.67;100.00;98219.47;4136556;28;20241;-48
2023/01/20 04:23:54;;;;;;;9.00;8.10;;;;;;;-1.64;100.00;98224.44;4124564;28;20244;-49
2023/01/20 04:25:56;;;;;;;7.20;6.70;;;;;;;-1.48;100.00;98230.50;4152054;28;20209;-48
2023/01/20 04:27:57;;;;;;;7.60;7.00;;;;;;;-1.44;100.00;98229.16;4135781;28;20288;-49
2023/01/20 04:29:59;;;;;;;8.87;8.07;;;;;;;-1.45;100.00;98227.47;4133652;28;20284;-49
2023/01/20 04:32:02;;;;;;;8.27;7.57;;;;;;;-1.53;100.00;98237.44;4136274;28;20256;-49
2023/01/20 04:34:05;;;;;;;7.73;6.97;;;;;;;-1.60;100.00;98237.31;4141308;28;20638;-46
2023/01/20 04:36:07;;;;;;;7.80;7.10;;;;;;;-1.44;100.00;98233.66;4149392;28;20240;-47
2023/01/20 04:38:09;;;;;;;7.43;6.63;;;;;;;-1.46;100.00;98236.53;4147681;28;20260;-46
2023/01/20 04:40:11;;;;;;;7.10;6.50;;;;;;;-1.59;100.00;98241.69;4122379;28;20244;-46
2023/01/20 04:42:12;;;;;;;8.73;7.93;;;;;;;-1.65;100.00;98225.47;4134696;28;20324;-47
2023/01/20 04:44:14;;;;;;;9.43;8.63;;;;;;;-1.67;100.00;98235.56;4165388;28;20214;-45
2023/01/20 04:46:16;;;;;;;9.70;8.70;;;;;;;-1.66;100.00;98245.25;4138430;28;20244;-46
2023/01/20 04:48:18;;;;;;;8.13;7.43;;;;;;;-1.70;100.00;98241.25;4153920;28;20215;-47
2023/01/20 04:50:19;;;;;;;8.17;7.57;;;;;;;-1.63;100.00;98239.53;4133625;28;20237;-49
2023/01/20 04:52:21;;;;;;;9.47;8.67;;;;;;;-1.61;100.00;98235.66;4162012;28;20319;-48
2023/01/20 04:54:23;;;;;;;12.57;7.73;;;;;;;-1.64;100.00;98240.53;4148259;28;20297;-47
2023/01/20 04:56:25;;;;;;;10.80;9.07;;;;;;;-1.49;100.00;98244.94;4137671;28;20240;-47
2023/01/20 04:58:27;;;;;;;9.00;8.10;;;;;;;-1.53;100.00;98248.16;4131375;28;20229;-47
2023/01/20 05:00:29;;;;;;;8.47;7.67;;;;;;;-1.60;100.00;98253.41;4131883;28;20653;-48
2023/01/20 05:02:31;;;;;;;7.50;6.90;;;;;;;-1.62;100.00;98254.63;4132408;28;20703;-48
2023/01/20 05:04:33;;;;;;;7.43;6.77;;;;;;;-1.59;100.00;98251.56;4130736;28;20671;-47
2023/01/20 05:06:35;;;;;;;7.50;6.80;;;;;;;-1.56;100.00;98253.88;4130499;28;20832;-47
2023/01/20 05:08:36;;;;;;;9.47;8.67;;;;;;;-1.48;100.00;98257.34;4136488;28;20611;-48
2023/01/20 05:10:38;;;;;;;8.17;7.37;;;;;;;-1.57;100.00;98257.59;4132378;28;20308;-47
2023/01/20 05:12:40;;;;;;;7.60;7.00;;;;;;;-1.60;100.00;98260.63;4132103;28;20260;-48
2023/01/20 05:14:42;;;;;;;8.83;8.10;;;;;;;-1.61;100.00;98272.38;4137302;28;20639;-47
2023/01/20 05:16:45;;;;;;;8.57;7.87;;;;;;;-1.53;100.00;98270.44;4137361;28;20251;-48
2023/01/20 05:18:47;;;;;;;9.13;8.33;;;;;;;-1.48;100.00;98261.88;4137344;28;20869;-47
2023/01/20 05:20:49;;;;;;;9.37;8.47;;;;;;;-1.51;100.00;98275.63;4136002;28;20217;-47
2023/01/20 05:22:51;;;;;;;9.47;7.80;;;;;;;-1.52;100.00;98263.25;4139195;28;20221;-47
2023/01/20 05:24:53;;;;;;;9.37;8.47;;;;;;;-1.56;100.00;98270.81;4136966;28;20272;-48
2023/01/20 05:26:54;;;;;;;7.40;6.63;;;;;;;-1.47;100.00;98266.22;4141572;28;20240;-47
2023/01/20 05:28:56;;;;;;;10.87;6.87;;;;;;;-1.57;100.00;98279.03;4142199;28;20300;-48
2023/01/20 05:30:58;;;;;;;8.97;8.07;;;;;;;-1.54;100.00;98273.31;4138794;28;20268;-48
2023/01/20 05:33:00;;;;;;;8.10;7.30;;;;;;;-1.44;100.00;98279.25;4137799;28;20808;-47
2023/01/20 05:35:01;;;;;;;7.87;7.27;;;;;;;-1.41;100.00;98278.91;4137686;28;20275;-48
2023/01/20 05:37:03;;;;;;;7.67;6.87;;;;;;;-1.50;100.00;98285.34;4139904;28;20580;-47
2023/01/20 05:39:05;;;;;;;8.10;7.50;;;;;;;-1.51;100.00;98284.53;4138647;28;20197;-47
2023/01/20 05:41:08;;;;;;;9.20;8.50;;;;;;;-1.60;100.00;98290.94;4138130;28;20213;-51
2023/01/20 05:43:10;;;;;;;7.00;6.40;;;;;;;-1.62;100.00;98295.66;4137328;28;21945;-48
2023/01/20 05:45:13;;;;;;;8.87;8.17;;;;;;;-1.52;100.00;98295.44;4148409;28;20311;-48
2023/01/20 05:47:15;;;;;;;6.50;5.97;;;;;;;-1.60;100.00;98298.19;4139333;28;20210;-49
2023/01/20 05:49:17;;;;;;;7.03;6.43;;;;;;;-1.60;100.00;98293.63;4169326;28;21173;-48
2023/01/20 05:51:19;;;;;;;6.47;5.77;;;;;;;-1.54;100.00;98298.28;4140323;28;20220;-48
2023/01/20 05:53:21;;;;;;;8.17;6.90;;;;;;;-1.60;100.00;98299.00;4137795;28;20233;-48
2023/01/20 05:55:23;;;;;;;8.10;7.37;;;;;;;-1.60;100.00;98295.50;4138818;28;20229;-47
2023/01/20 05:57:25;;;;;;;4.90;4.60;;;;;;;-1.33;100.00;98297.63;4137847;28;20261;-48
2023/01/20 05:59:27;;;;;;;9.03;8.33;;;;;;;-1.67;100.00;98305.28;4138760;28;20237;-48
2023/01/20 06:01:29;;;;;;;7.97;7.27;;;;;;;-1.69;100.00;98307.31;4137840;28;20260;-48
2023/01/20 06:03:30;;;;;;;7.87;7.03;;;;;;;-1.55;100.00;98303.84;4151137;28;20677;-49
2023/01/20 06:05:32;;;;;;;8.33;7.53;;;;;;;-1.59;100.00;98302.53;4151712;28;20576;-48
2023/01/20 06:07:34;;;;;;;7.40;6.83;;;;;;;-1.61;100.00;98312.63;4134794;28;20309;-49
2023/01/20 06:09:36;;;;;;;8.03;7.33;;;;;;;-1.56;100.00;98312.88;4129580;28;20203;-48
2023/01/20 06:11:37;;;;;;;7.67;6.90;;;;;;;-1.57;100.00;98327.31;4109685;28;20898;-49
2023/01/20 06:13:39;;;;;;;7.43;6.93;;;;;;;-1.36;100.00;98316.75;4160008;28;20644;-48
2023/01/20 06:15:41;;;;;;;9.03;8.30;;;;;;;-1.43;100.00;98324.69;4134040;28;20205;-48
2023/01/20 06:17:43;;;;;;;9.83;8.93;;;;;;;-1.51;100.00;98326.59;4134814;28;20296;-48
2023/01/20 06:19:44;;;;;;;9.73;8.77;;;;;;;-1.29;100.00;98331.13;4142729;28;20848;-49
2023/01/20 06:21:47;;;;;;;10.53;9.33;;;;;;;-1.48;100.00;98335.13;4137648;28;20213;-48
2023/01/20 06:23:49;;;;;;;11.93;10.73;;;;;;;-1.51;100.00;98342.69;4135813;28;20259;-47
2023/01/20 06:25:58;;;;;;;11.80;10.60;;;;;;;-1.47;100.00;98334.09;4136550;28;20198;-48
2023/01/20 06:28:00;;;;;;;12.10;10.93;;;;;;;-1.51;100.00;98348.06;4116648;28;20278;-47
2023/01/20 06:30:04;;;;;;;12.93;11.63;;;;;;;-1.50;100.00;98344.34;4148531;28;20205;-48
2023/01/20 06:32:08;;;;;;;13.63;12.43;;;;;;;-1.50;100.00;98344.34;4136248;28;20248;-48
2023/01/20 06:34:10;;;;;;;15.80;12.20;;;;;;;-1.53;100.00;98345.53;4140953;28;20236;-49
2023/01/20 06:36:15;;;;;;;13.30;12.00;;;;;;;-1.34;100.00;98344.25;4151227;28;20248;-48
2023/01/20 06:38:17;;;;;;;13.97;11.83;;;;;;;-1.38;100.00;98340.25;4138341;28;20224;-48
2023/01/20 06:40:19;;;;;;;12.87;11.70;;;;;;;-1.44;100.00;98349.84;4125319;28;20214;-47
2023/01/20 06:42:21;;;;;;;13.83;12.30;;;;;;;-1.42;100.00;98347.00;4120503;28;20755;-48
2023/01/20 06:44:24;;;;;;;12.33;10.73;;;;;;;-1.43;100.00;98350.66;4120976;28;20886;-48
2023/01/20 06:46:26;;;;;;;14.27;10.43;;;;;;;-1.38;100.00;98359.03;4152409;28;20606;-49
2023/01/20 06:48:28;;;;;;;10.67;9.73;;;;;;;-1.16;100.00;98348.28;4135999;28;20326;-48
2023/01/20 06:50:30;;;;;;;10.40;9.40;;;;;;;-1.23;100.00;98355.38;4135882;28;20638;-49
2023/01/20 06:52:32;;;;;;;11.00;10.20;;;;;;;-1.31;100.00;98349.25;4132908;28;20229;-47
2023/01/20 06:54:34;;;;;;;12.03;10.67;;;;;;;-1.22;100.00;98353.56;4134680;28;20263;-47
2023/01/20 06:56:36;;;;;;;9.60;8.70;;;;;;;-1.25;100.00;98359.25;4121741;28;20257;-48
2023/01/20 06:58:38;;;;;;;10.33;8.43;;;;;;;-1.23;100.00;98365.28;4134262;28;21387;-48
2023/01/20 07:00:40;;;;;;;12.83;11.20;;;;;;;-1.41;100.00;98364.75;4122484;28;20315;-47
2023/01/20 07:02:42;;;;;;;10.10;8.93;;;;;;;-1.43;100.00;98367.63;4149557;28;20232;-48
2023/01/20 07:04:47;;;;;;;10.43;9.43;;;;;;;-1.44;100.00;98374.00;4136877;28;20213;-48
2023/01/20 07:06:49;;;;;;;12.20;10.50;;;;;;;-1.43;100.00;98389.06;4139752;28;20454;-48
2023/01/20 07:08:51;;;;;;;12.83;11.63;;;;;;;-1.45;100.00;98388.44;4167272;28;20204;-49
2023/01/20 07:10:53;;;;;;;12.67;11.57;;;;;;;-1.41;100.00;98395.09;4150720;28;20223;-47
2023/01/20 07:12:55;;;;;;;11.23;10.13;;;;;;;-1.33;100.00;98394.22;4133910;28;20276;-48
2023/01/20 07:14:57;;;;;;;9.57;8.83;;;;;;;-1.40;100.00;98395.94;4135960;28;20225;-48
2023/01/20 07:16:59;;;;;;;11.37;8.57;;;;;;;-1.29;100.00;98400.91;4137800;28;20683;-47
2023/01/20 07:19:01;;;;;;;9.93;9.13;;;;;;;-1.41;100.00;98397.78;4126785;28;20261;-48
2023/01/20 07:21:04;;;;;;;10.30;8.77;;;;;;;-1.52;100.00;98403.56;4129447;28;20209;-47
2023/01/20 07:23:08;;;;;;;9.80;8.57;;;;;;;-1.51;100.00;98407.91;4137577;28;20225;-47
2023/01/20 07:25:10;;;;;;;10.13;9.13;;;;;;;-1.43;100.00;98417.75;4131124;28;20252;-48
2023/01/20 07:27:13;;;;;;;11.13;10.23;;;;;;;-1.36;100.00;98418.69;4129430;28;20263;-48
2023/01/20 07:29:15;;;;;;;9.37;8.47;;;;;;;-1.39;100.00;98419.06;4128912;28;20209;-47
2023/01/20 07:31:23;;;;;;;9.30;8.50;;;;;;;-1.26;100.00;98416.63;4115579;28;20235;-47
2023/01/20 07:33:26;;;;;;;11.43;10.43;;;;;;;-1.50;100.00;98414.09;4128064;28;20284;-47
2023/01/20 07:35:28;;;;;;;13.47;12.23;;;;;;;-1.60;100.00;98418.88;4134834;28;20306;-46
2023/01/20 07:37:30;;;;;;;12.17;10.73;;;;;;;-1.48;100.00;98428.19;4123481;28;20211;-47
2023/01/20 07:39:35;;;;;;;12.87;11.63;;;;;;;-1.65;100.00;98421.25;4137243;28;20225;-47
2023/01/20 07:41:37;;;;;;;14.70;13.30;;;;;;;-1.47;100.00;98419.94;4116260;28;20214;-47
2023/01/20 07:43:38;;;;;;;15.17;11.17;;;;;;;-1.74;100.00;98422.31;4137871;28;20213;-47
2023/01/20 07:45:41;;;;;;;12.80;11.20;;;;;;;-1.74;100.00;98430.34;4120848;28;20216;-48
2023/01/20 07:47:43;;;;;;;10.13;9.07;;;;;;;-1.76;100.00;98430.50;4137948;28;20280;-48
2023/01/20 07:49:45;;;;;;;10.27;9.37;;;;;;;-1.57;100.00;98435.44;4135450;28;20205;-47
2023/01/20 07:51:47;;;;;;;9.90;9.13;;;;;;;-1.55;100.00;98433.41;4137833;28;20232;-50
2023/01/20 07:53:50;;;;;;;10.83;9.83;;;;;;;-1.60;100.00;98435.78;4153132;28;20200;-48
2023/01/20 07:55:53;;;;;;;10.03;9.17;;;;;;;-1.60;100.00;98438.47;4134922;28;20220;-49
2023/01/20 07:57:57;;;;;;;12.23;10.00;;;;;;;-1.52;100.00;98442.94;4134632;28;20663;-48
2023/01/20 08:00:00;;;;;;;9.70;8.83;;;;;;;-1.41;100.00;98450.63;4142031;28;20205;-49
2023/01/20 08:02:02;;;;;;;12.80;10.27;;;;;;;-1.45;100.00;98454.66;4122739;28;20241;-50
2023/01/20 08:04:05;;;;;;;9.73;8.83;;;;;;;-1.42;100.00;98459.69;4139769;28;20229;-47
2023/01/20 08:06:10;;;;;;;8.97;8.17;;;;;;;-1.35;100.00;98455.28;4136795;28;20580;-48
2023/01/20 08:08:22;;;;;;;10.80;8.70;;;;;;;-1.29;100.00;98465.31;4138395;28;20287;-48
2023/01/20 08:10:24;;;;;;;9.00;8.30;;;;;;;-1.25;100.00;98466.59;4139334;28;20668;-48
2023/01/20 08:12:28;;;;;;;12.03;8.73;;;;;;;-1.18;100.00;98467.56;4117999;28;20234;-48
2023/01/20 08:14:32;;;;;;;9.30;8.40;;;;;;;-1.10;100.00;98465.66;4132057;28;20295;-48
2023/01/20 08:16:45;;;;;;;10.07;8.60;;;;;;;-1.30;100.00;98469.81;4132543;28;22297;-46
2023/01/20 08:18:53;;;;;;;12.97;10.70;;;;;;;-1.36;100.00;98469.69;4138581;28;20874;-47
2023/01/20 08:20:55;;;;;;;14.87;13.20;;;;;;;-1.12;100.00;98469.53;4137734;28;20244;-48
2023/01/20 08:22:57;;;;;;;15.83;13.97;;;;;;;-1.17;100.00;98466.53;4138541;28;20232;-47
2023/01/20 08:25:07;;;;;;;12.93;11.60;;;;;;;-1.23;100.00;98475.31;4140594;28;20209;-46
2023/01/20 08:27:09;;;;;;;11.10;9.90;;;;;;;-1.14;100.00;98483.13;4137659;28;20571;-47
2023/01/20 08:29:12;;;;;;;13.57;12.17;;;;;;;-1.12;100.00;98481.13;4140947;28;20245;-47
2023/01/20 08:31:16;;;;;;;9.67;8.77;;;;;;;-1.13;100.00;98486.66;4121857;28;20309;-46
2023/01/20 08:33:19;;;;;;;11.00;9.03;;;;;;;-1.00;100.00;98493.09;4135913;28;20269;-47
2023/01/20 08:35:30;;;;;;;12.73;11.43;;;;;;;-0.03;100.00;98491.25;4133020;28;22675;-47
2023/01/20 08:37:35;;;;;;;13.07;11.83;;;;;;;0.47;100.00;98486.78;4114046;28;20230;-47
2023/01/20 08:39:37;;;;;;;9.57;8.80;;;;;;;1.00;100.00;98489.06;4150269;28;20221;-47
2023/01/20 08:41:42;;;;;;;9.35;8.43;;;;;;;1.27;100.00;98491.00;4134833;28;20657;-48
2023/01/20 08:43:43;;;;;;;8.00;7.30;;;;;;;1.22;100.00;98496.13;4134012;28;20719;-48
2023/01/20 08:46:00;;;;;;;12.45;7.88;;;;;;;1.17;100.00;98500.44;4135610;28;20237;-48
2023/01/20 08:48:02;;;;;;;7.75;7.18;;;;;;;1.80;100.00;98493.16;4135360;28;20642;-48
2023/01/20 08:50:06;;;;;;;8.95;8.15;;;;;;;1.71;100.00;98499.72;4138985;28;20221;-47
2023/01/20 08:52:19;;;;;;;6.43;5.93;;;;;;;2.05;100.00;98497.06;4136049;28;20264;-47
2023/01/20 08:54:21;;;;;;;9.43;8.48;;;;;;;2.77;100.00;98494.78;4141729;28;20244;-48
2023/01/20 08:56:24;;;;;;;8.52;7.50;;;;;;;2.92;99.01;98495.44;4137219;28;20210;-49
2023/01/20 08:58:26;;;;;;;7.45;6.90;;;;;;;2.95;99.89;98503.97;4136544;28;20267;-48
2023/01/20 09:00:28;;;;;;;9.32;8.60;;;;;;;3.49;99.20;98496.66;4122913;28;20308;-49
2023/01/20 09:02:30;;;;;;;9.95;8.38;;;;;;;3.91;96.13;98501.69;4133846;28;20284;-47
2023/01/20 09:04:35;;;;;;;9.50;8.73;;;;;;;3.57;97.54;98506.44;4132927;28;20213;-50
2023/01/20 09:06:43;;;;;;;7.95;7.25;;;;;;;4.25;94.97;98501.44;4137638;28;20214;-48
2023/01/20 09:08:45;;;;;;;9.40;8.52;;;;;;;4.01;93.63;98504.78;4149642;28;20316;-48
2023/01/20 09:10:47;;;;;;;10.57;9.68;;;;;;;4.45;92.03;98502.22;4137143;28;20205;-48
2023/01/20 09:12:48;;;;;;;8.57;7.78;;;;;;;4.18;91.95;98506.03;4135246;28;20674;-48
2023/01/20 09:14:50;;;;;;;8.02;6.50;;;;;;;3.56;92.85;98504.78;4136731;28;20388;-48
2023/01/20 09:16:55;;;;;;;8.57;7.78;;;;;;;3.48;93.95;98513.09;4133517;28;20205;-48
2023/01/20 09:18:59;;;;;;;8.65;7.82;;;;;;;3.17;96.14;98516.34;4136206;28;20312;-49
2023/01/20 09:21:01;;;;;;;7.90;7.10;;;;;;;2.93;96.68;98519.56;4138115;28;20213;-48
2023/01/20 09:23:03;;;;;;;6.78;6.20;;;;;;;2.69;96.84;98522.81;4138072;28;20319;-47
2023/01/20 09:25:07;;;;;;;8.32;7.47;;;;;;;2.32;99.69;98520.50;4135205;28;20735;-48
2023/01/20 09:27:09;;;;;;;9.23;8.32;;;;;;;2.10;100.00;98516.22;4132508;28;20204;-47
2023/01/20 09:29:14;;;;;;;7.80;7.07;;;;;;;1.89;100.00;98523.50;4151866;28;20564;-47
2023/01/20 09:31:17;;;;;;;7.60;6.70;;;;;;;1.79;100.00;98526.53;4137222;28;20585;-47
2023/01/20 09:33:19;;;;;;;8.10;6.80;;;;;;;1.90;100.00;98526.03;4118495;28;20720;-47
2023/01/20 09:35:22;;;;;;;8.27;7.32;;;;;;;1.77;100.00;98530.47;4135899;28;20244;-46
2023/01/20 09:45:24;;;;;;;8.20;6.50;;;;;;;1.50;100.00;98528.56;4134709;28;20206;-48